Terminal Aerodrome Forecast
Issued by NWS Tallahassee, FL

Home | Current Version | Previous Version | Text Only | Print | Product List | Glossary On
Versions: 1 2 3 4 5 6 7 8 9 10 11 12 13 14 15 16
902
FTUS42 KTAE 281720
TAFTLH
TAF
KTLH 281720Z 2818/2918 27010KT P6SM SCT040
     FM290100 24004KT P6SM SCT040
     FM290600 27003KT 3SM BR BKN005
     FM291300 24004KT P6SM BKN015
     FM291600 25005KT P6SM BKN035=

USA.gov is the U.S. government's official web portal to all federal, state and local government web resources and services.